createdAt,value
2023-04-01T00:00:17.164Z,4.50
2023-04-01T00:02:45.040Z,4.28
2023-04-01T00:05:12.945Z,4.90
2023-04-01T00:07:41.124Z,5.13
2023-04-01T00:10:09.466Z,4.70
2023-04-01T00:12:37.264Z,5.57
2023-04-01T00:15:05.694Z,6.78
2023-04-01T00:17:33.444Z,5.00
2023-04-01T00:20:01.351Z,4.60
2023-04-01T00:22:29.151Z,4.53
2023-04-01T00:24:56.840Z,4.93
2023-04-01T00:27:27.400Z,5.75
2023-04-01T00:29:57.544Z,4.00
2023-04-01T00:34:55.088Z,5.10
2023-04-01T00:39:50.260Z,4.97
2023-04-01T00:42:17.996Z,5.00
2023-04-01T00:44:47.520Z,5.00
2023-04-01T00:47:15.748Z,5.00
2023-04-01T00:49:50.090Z,4.95
2023-04-01T00:52:21.701Z,5.15
2023-04-01T00:54:53.544Z,4.07
2023-04-01T00:57:23.998Z,5.40
2023-04-01T00:59:53.773Z,4.47
2023-04-01T01:02:21.756Z,5.05
2023-04-01T01:04:49.668Z,5.10
2023-04-01T01:07:17.357Z,4.40
2023-04-01T01:10:05.152Z,5.13
2023-04-01T01:12:37.210Z,4.65
2023-04-01T01:15:10.346Z,4.78
2023-04-01T01:17:41.233Z,4.53
2023-04-01T01:20:53.059Z,5.72
2023-04-01T01:23:38.284Z,4.47
2023-04-01T01:26:43.964Z,4.70
2023-04-01T01:29:17.753Z,5.15
2023-04-01T01:32:13.881Z,4.32
2023-04-01T01:35:18.881Z,5.20
2023-04-01T01:37:49.073Z,5.43
2023-04-01T01:42:47.812Z,5.13
2023-04-01T01:45:18.859Z,5.05
2023-04-01T01:47:47.262Z,5.28
2023-04-01T01:50:15.727Z,4.88
2023-04-01T01:52:43.665Z,4.70
2023-04-01T01:55:32.658Z,4.75
2023-04-01T01:58:01.509Z,5.57
2023-04-01T02:00:29.785Z,4.53
2023-04-01T02:03:00.939Z,5.70
2023-04-01T02:05:31.997Z,4.47
2023-04-01T02:08:02.864Z,4.32
2023-04-01T02:10:33.658Z,6.18
2023-04-01T02:13:03.489Z,5.15
2023-04-01T02:15:36.365Z,4.68
2023-04-01T02:18:04.323Z,4.63
2023-04-01T02:20:32.621Z,5.20
2023-04-01T02:23:01.096Z,5.40
2023-04-01T02:25:30.958Z,4.20
2023-04-01T02:27:59.598Z,4.30
2023-04-01T02:30:30.681Z,4.72
2023-04-01T02:33:01.948Z,4.22
2023-04-01T02:35:29.539Z,5.05
2023-04-01T02:37:58.022Z,4.50
2023-04-01T02:40:28.859Z,4.85
2023-04-01T02:42:56.554Z,3.58
2023-04-01T02:45:24.373Z,4.60
2023-04-01T02:47:52.115Z,4.50
2023-04-01T02:50:19.846Z,4.60
2023-04-01T02:52:47.674Z,4.75
2023-04-01T02:55:15.832Z,4.95
2023-04-01T02:57:43.675Z,5.93
2023-04-01T03:00:12.384Z,4.93
2023-04-01T03:02:40.822Z,5.28
2023-04-01T03:05:08.948Z,5.43
2023-04-01T03:07:36.665Z,5.22
2023-04-01T03:10:04.342Z,6.15
2023-04-01T03:12:32.154Z,4.68
2023-04-01T03:15:11.025Z,5.30
2023-04-01T03:17:42.216Z,5.13
2023-04-01T03:20:11.842Z,4.70
2023-04-01T03:22:41.536Z,5.28
2023-04-01T03:25:11.008Z,3.90
2023-04-01T03:27:38.684Z,5.53
2023-04-01T03:30:07.199Z,4.65
2023-04-01T03:32:34.922Z,4.95
2023-04-01T03:35:02.636Z,5.18
2023-04-01T03:37:30.290Z,6.10
2023-04-01T03:39:57.963Z,5.10
2023-04-01T03:42:25.750Z,4.80
2023-04-01T03:44:53.494Z,4.25
2023-04-01T03:47:21.145Z,4.68
2023-04-01T03:49:48.878Z,4.60
2023-04-01T03:52:17.117Z,4.80
2023-04-01T03:54:44.750Z,4.45
2023-04-01T03:57:12.571Z,3.50
2023-04-01T03:59:40.206Z,4.50
2023-04-01T04:02:08.006Z,4.60
2023-04-01T04:04:35.889Z,4.35
2023-04-01T04:07:03.644Z,4.25
2023-04-01T04:09:32.510Z,5.10
2023-04-01T04:12:00.264Z,4.55
2023-04-01T04:14:27.912Z,4.70
2023-04-01T04:16:55.530Z,4.60
2023-04-01T04:19:23.249Z,4.05
2023-04-01T04:21:50.974Z,4.65
2023-04-01T04:24:18.547Z,5.28
2023-04-01T04:26:46.236Z,4.68
2023-04-01T04:29:14.016Z,4.55
2023-04-01T04:31:41.734Z,4.45
2023-04-01T04:34:09.433Z,4.90
2023-04-01T04:36:37.256Z,5.30
2023-04-01T04:39:04.922Z,5.30
2023-04-01T04:41:32.925Z,5.18
2023-04-01T04:44:00.389Z,5.43
2023-04-01T04:46:28.090Z,4.75
2023-04-01T04:48:55.720Z,4.25
2023-04-01T04:51:24.534Z,4.50
2023-04-01T04:53:52.976Z,4.05
2023-04-01T04:56:26.429Z,4.68
2023-04-01T04:58:54.311Z,4.38
2023-04-01T05:01:22.096Z,5.38
2023-04-01T05:03:50.026Z,3.83
2023-04-01T05:06:18.070Z,3.72
2023-04-01T05:08:46.580Z,4.15
2023-04-01T05:11:19.164Z,3.80
2023-04-01T05:13:47.017Z,3.80
2023-04-01T05:16:19.636Z,3.83
2023-04-01T05:18:47.566Z,3.78
2023-04-01T05:21:16.101Z,3.75
2023-04-01T05:23:44.421Z,3.00
2023-04-01T05:26:13.575Z,2.63
2023-04-01T05:28:41.595Z,3.72
2023-04-01T05:31:10.064Z,3.08
2023-04-01T05:33:37.889Z,2.33
2023-04-01T05:36:09.814Z,2.70
2023-04-01T05:38:41.152Z,2.60
2023-04-01T05:41:08.718Z,2.58
2023-04-01T05:43:40.389Z,2.15
2023-04-01T05:46:08.615Z,2.53
2023-04-01T05:48:36.316Z,2.70
2023-04-01T05:51:04.613Z,2.40
2023-04-01T05:53:32.314Z,3.65
2023-04-01T05:56:03.958Z,3.90
2023-04-01T05:58:31.969Z,2.40
2023-04-01T06:01:09.366Z,3.28
2023-04-01T06:03:38.882Z,2.63
2023-04-01T06:06:17.770Z,3.42
2023-04-01T06:08:45.547Z,3.40
2023-04-01T06:11:22.324Z,3.10
2023-04-01T06:14:08.728Z,2.90
2023-04-01T06:16:57.769Z,3.42
2023-04-01T06:19:32.287Z,3.40
2023-04-01T06:22:18.751Z,3.60
2023-04-01T06:25:08.834Z,3.30
2023-04-01T06:27:45.853Z,3.45
2023-04-01T06:30:33.687Z,2.13
2023-04-01T06:33:10.645Z,2.38
2023-04-01T06:35:44.350Z,2.42
2023-04-01T06:38:32.119Z,2.00
2023-04-01T06:41:02.788Z,1.92
2023-04-01T06:43:48.710Z,2.38
2023-04-01T06:46:46.080Z,2.40
2023-04-01T06:49:33.907Z,2.28
2023-04-01T06:52:20.795Z,4.20
2023-04-01T06:54:53.974Z,2.85
2023-04-01T06:57:21.748Z,2.55
2023-04-01T06:59:49.800Z,2.10
2023-04-01T07:02:31.396Z,3.03
2023-04-01T07:05:00.309Z,2.17
2023-04-01T07:07:36.222Z,2.25
2023-04-01T07:10:06.404Z,4.15
2023-04-01T07:15:22.926Z,3.05
2023-04-01T07:17:54.501Z,2.15
2023-04-01T07:20:24.905Z,3.20
2023-04-01T07:22:54.702Z,2.97
2023-04-01T07:25:26.368Z,2.28
2023-04-01T07:28:07.430Z,2.55
2023-04-01T07:30:44.703Z,1.90
2023-04-01T07:33:21.661Z,2.42
2023-04-01T07:35:49.268Z,2.90
2023-04-01T07:38:23.012Z,2.33
2023-04-01T07:40:56.833Z,3.05
2023-04-01T07:43:42.818Z,2.60
2023-04-01T07:46:16.610Z,3.25
2023-04-01T07:48:44.326Z,3.00
2023-04-01T07:51:24.264Z,1.83
2023-04-01T07:54:00.546Z,1.90
2023-04-01T07:58:55.866Z,1.70
2023-04-01T08:01:26.593Z,1.80
2023-04-01T08:03:54.501Z,2.17
2023-04-01T08:06:31.387Z,2.25
2023-04-01T08:08:58.974Z,2.72
2023-04-01T08:11:32.695Z,3.75
2023-04-01T08:14:15.093Z,2.38
2023-04-01T08:16:54.470Z,1.80
2023-04-01T08:19:45.573Z,3.00
2023-04-01T08:22:28.767Z,2.03
2023-04-01T08:24:58.351Z,1.90
2023-04-01T08:27:26.004Z,2.03
2023-04-01T08:30:10.377Z,2.75
2023-04-01T08:32:39.677Z,2.83
2023-04-01T08:35:22.726Z,2.17
2023-04-01T08:37:50.642Z,2.10
2023-04-01T08:40:18.292Z,2.33
2023-04-01T08:42:55.253Z,2.40
2023-04-01T08:45:22.813Z,2.38
2023-04-01T08:47:50.557Z,2.05
2023-04-01T08:50:18.133Z,1.98
2023-04-01T08:52:49.296Z,2.40
2023-04-01T08:55:29.760Z,2.03
2023-04-01T08:58:09.771Z,3.25
2023-04-01T09:00:46.627Z,2.25
2023-04-01T09:03:33.901Z,3.78
2023-04-01T09:06:24.937Z,3.35
2023-04-01T09:09:08.974Z,1.95
2023-04-01T09:11:55.389Z,2.17
2023-04-01T09:14:29.131Z,2.78
2023-04-01T09:17:02.926Z,2.58
2023-04-01T09:19:42.844Z,1.92
2023-04-01T09:22:22.704Z,2.03
2023-04-01T09:25:02.866Z,2.25
2023-04-01T09:27:32.029Z,2.20
2023-04-01T09:30:19.396Z,2.53
2023-04-01T09:32:56.403Z,2.72
2023-04-01T09:35:38.709Z,4.38
2023-04-01T09:40:48.872Z,2.20
2023-04-01T09:43:18.634Z,3.53
2023-04-01T09:46:04.995Z,2.53
2023-04-01T09:48:51.338Z,2.13
2023-04-01T09:51:21.954Z,3.15
2023-04-01T09:54:06.982Z,3.00
2023-04-01T09:56:46.078Z,2.00
2023-04-01T09:59:32.821Z,2.50
2023-04-01T10:02:03.551Z,2.45
2023-04-01T10:04:46.402Z,2.65
2023-04-01T10:07:17.196Z,1.88
2023-04-01T10:09:47.909Z,1.90
2023-04-01T10:12:19.980Z,2.47
2023-04-01T10:14:47.463Z,3.40
2023-04-01T10:17:18.065Z,2.45
2023-04-01T10:19:56.232Z,2.35
2023-04-01T10:22:26.850Z,2.42
2023-04-01T10:25:05.587Z,1.98
2023-04-01T10:27:39.899Z,2.45
2023-04-01T10:30:07.458Z,2.50
2023-04-01T10:32:35.068Z,1.92
2023-04-01T10:35:02.797Z,2.25
2023-04-01T10:37:49.105Z,1.38
2023-04-01T10:40:26.742Z,1.85
2023-04-01T10:43:08.805Z,3.42
2023-04-01T10:45:38.603Z,2.67
2023-04-01T10:48:12.417Z,3.20
2023-04-01T10:50:49.151Z,2.10
2023-04-01T10:53:36.186Z,1.77
2023-04-01T10:56:23.172Z,3.25
2023-04-01T10:58:56.244Z,3.85
2023-04-01T11:01:24.599Z,4.40
2023-04-01T11:04:35.518Z,2.30
2023-04-01T11:07:24.372Z,3.38
2023-04-01T11:10:33.102Z,3.28
2023-04-01T11:13:15.741Z,3.75
2023-04-01T11:15:50.392Z,3.88
2023-04-01T11:18:17.897Z,2.80
2023-04-01T11:21:26.156Z,2.10
2023-04-01T11:24:32.602Z,3.53
2023-04-01T11:27:06.130Z,3.17
2023-04-01T11:30:20.656Z,2.28
2023-04-01T11:33:06.841Z,2.60
2023-04-01T11:36:00.749Z,7.32
2023-04-01T11:38:31.371Z,2.50
2023-04-01T11:41:17.338Z,3.28
2023-04-01T11:44:14.447Z,3.78
2023-04-01T11:46:48.894Z,3.00
2023-04-01T11:49:34.186Z,2.70
2023-04-01T11:52:15.596Z,3.35
2023-04-01T11:54:58.276Z,2.63
2023-04-01T11:58:00.759Z,2.65
2023-04-01T12:00:28.317Z,4.75
2023-04-01T12:03:16.791Z,3.65
2023-04-01T12:05:44.461Z,3.15
2023-04-01T12:08:18.169Z,2.35
2023-04-01T12:11:22.469Z,2.67
2023-04-01T12:14:15.105Z,2.50
2023-04-01T12:17:11.099Z,3.58
2023-04-01T12:19:53.132Z,2.35
2023-04-01T12:22:20.366Z,3.33
2023-04-01T12:25:07.871Z,3.67
2023-04-01T12:28:13.524Z,3.63
2023-04-01T12:31:07.718Z,4.07
2023-04-01T12:33:53.250Z,3.35
2023-04-01T12:36:30.530Z,6.32
2023-04-01T12:39:40.469Z,2.22
2023-04-01T12:42:40.546Z,3.75
2023-04-01T12:45:29.000Z,2.80
2023-04-01T12:48:05.832Z,5.13
2023-04-01T12:50:38.681Z,2.53
2023-04-01T12:53:43.579Z,3.33
2023-04-01T12:56:47.104Z,3.53
2023-04-01T12:59:53.515Z,3.53
2023-04-01T13:02:29.932Z,3.15
2023-04-01T13:05:12.880Z,3.25
2023-04-01T13:07:45.960Z,5.05
2023-04-01T13:10:40.993Z,3.92
2023-04-01T13:13:20.843Z,3.83
2023-04-01T13:15:59.909Z,3.35
2023-04-01T13:18:32.801Z,3.67
2023-04-01T13:21:00.856Z,3.60
2023-04-01T13:23:47.667Z,2.80
2023-04-01T13:26:26.899Z,3.75
2023-04-01T13:29:09.141Z,3.33
2023-04-01T13:31:43.167Z,3.33
2023-04-01T13:34:44.378Z,3.67
2023-04-01T13:37:31.496Z,2.65
2023-04-01T13:39:59.036Z,3.83
2023-04-01T13:43:05.777Z,1.20
2023-04-01T13:46:11.659Z,2.85
2023-04-01T13:48:59.696Z,3.38
2023-04-01T13:51:42.938Z,2.75
2023-04-01T13:54:37.533Z,2.40
2023-04-01T13:57:23.699Z,3.72
2023-04-01T13:59:52.084Z,2.22
2023-04-01T14:02:40.699Z,2.50
2023-04-01T14:05:43.111Z,2.80
2023-04-01T14:08:29.875Z,1.38
2023-04-01T14:11:32.602Z,2.70
2023-04-01T14:14:21.320Z,0.82
2023-04-01T14:19:57.378Z,0.73
2023-04-01T14:22:46.897Z,1.50
2023-04-01T14:25:41.770Z,2.65
2023-04-01T14:28:36.942Z,1.85
2023-04-01T14:31:13.593Z,1.83
2023-04-01T14:33:59.611Z,2.10
2023-04-01T14:36:51.609Z,2.80
2023-04-01T14:39:58.238Z,2.63
2023-04-01T14:42:38.798Z,1.48
2023-04-01T14:45:37.227Z,1.33
2023-04-01T14:48:26.531Z,1.33
2023-04-01T14:50:57.364Z,1.95
2023-04-01T14:53:25.450Z,1.35
2023-04-01T14:56:03.892Z,2.10
2023-04-01T14:58:51.341Z,2.35
2023-04-01T15:01:26.241Z,2.45
2023-04-01T15:04:18.066Z,1.45
2023-04-01T15:06:54.270Z,1.38
2023-04-01T15:09:39.942Z,2.00
2023-04-01T15:12:28.415Z,2.08
2023-04-01T15:15:16.559Z,2.13
2023-04-01T15:17:44.380Z,1.52
2023-04-01T15:20:32.995Z,1.02
2023-04-01T15:23:13.017Z,2.40
2023-04-01T15:26:17.647Z,1.88
2023-04-01T15:29:03.661Z,1.30
2023-04-01T15:31:31.238Z,1.83
2023-04-01T15:34:02.092Z,1.45
2023-04-01T15:36:29.669Z,1.25
2023-04-01T15:39:06.289Z,1.10
2023-04-01T15:41:56.984Z,1.33
2023-04-01T15:44:52.049Z,1.15
2023-04-01T15:47:28.627Z,1.48
2023-04-01T15:50:02.305Z,1.63
2023-04-01T15:52:52.421Z,2.00
2023-04-01T15:55:49.469Z,1.40
2023-04-01T15:58:25.200Z,0.63
2023-04-01T16:01:13.912Z,1.80
2023-04-01T16:06:18.138Z,1.30
2023-04-01T16:09:23.025Z,1.65
2023-04-01T16:12:16.897Z,1.40
2023-04-01T16:14:44.609Z,0.82
2023-04-01T16:17:56.147Z,1.77
2023-04-01T16:20:58.576Z,1.58
2023-04-01T16:23:57.911Z,2.50
2023-04-01T16:26:36.878Z,0.85
2023-04-01T16:29:16.896Z,2.85
2023-04-01T16:31:56.858Z,1.90
2023-04-01T16:34:39.522Z,2.42
2023-04-01T16:37:13.844Z,1.17
2023-04-01T16:39:47.649Z,1.77
2023-04-01T16:42:29.262Z,1.83
2023-04-01T16:44:57.841Z,0.57
2023-04-01T16:47:52.516Z,1.92
2023-04-01T16:50:20.181Z,1.92
2023-04-01T16:52:54.382Z,2.08
2023-04-01T16:55:26.015Z,2.03
2023-04-01T16:58:02.929Z,2.00
2023-04-01T17:00:33.223Z,1.63
2023-04-01T17:03:08.891Z,1.40
2023-04-01T17:06:07.948Z,0.77
2023-04-01T17:09:19.686Z,1.50
2023-04-01T17:11:58.904Z,1.50
2023-04-01T17:14:29.116Z,1.88
2023-04-01T17:17:17.641Z,2.00
2023-04-01T17:20:03.583Z,2.00
2023-04-01T17:22:53.229Z,2.28
2023-04-01T17:25:45.165Z,1.83
2023-04-01T17:28:37.933Z,1.50
2023-04-01T17:31:11.824Z,1.20
2023-04-01T17:33:39.358Z,1.60
2023-04-01T17:36:26.497Z,1.52
2023-04-01T17:38:59.114Z,1.63
2023-04-01T17:41:26.691Z,1.83
2023-04-01T17:44:31.937Z,2.03
2023-04-01T17:47:50.090Z,2.42
2023-04-01T17:50:29.603Z,2.28
2023-04-01T17:53:23.281Z,2.67
2023-04-01T17:55:57.329Z,2.88
2023-04-01T17:58:42.665Z,3.95
2023-04-01T18:01:55.584Z,3.25
2023-04-01T18:04:50.159Z,1.70
2023-04-01T18:08:02.015Z,2.33
2023-04-01T18:10:55.590Z,2.30
2023-04-01T18:13:49.198Z,1.70
2023-04-01T18:16:16.950Z,2.50
2023-04-01T18:19:00.841Z,1.80
2023-04-01T18:21:53.374Z,2.70
2023-04-01T18:24:42.976Z,2.00
2023-04-01T18:27:39.806Z,2.67
2023-04-01T18:30:30.372Z,2.72
2023-04-01T18:33:19.739Z,2.50
2023-04-01T18:35:55.887Z,1.90
2023-04-01T18:38:43.148Z,2.03
2023-04-01T18:41:25.327Z,3.10
2023-04-01T18:44:20.377Z,2.28
2023-04-01T18:46:50.189Z,2.85
2023-04-01T18:49:17.833Z,2.35
2023-04-01T18:51:48.602Z,2.65
2023-04-01T18:54:33.356Z,2.63
2023-04-01T18:57:15.876Z,2.65
2023-04-01T19:02:35.224Z,2.30
2023-04-01T19:05:25.216Z,2.33
2023-04-01T19:07:55.983Z,2.38
2023-04-01T19:10:35.523Z,1.70
2023-04-01T19:13:30.360Z,2.00
2023-04-01T19:16:13.509Z,2.38
2023-04-01T19:19:07.124Z,2.30
2023-04-01T19:21:34.689Z,2.25
2023-04-01T19:24:38.199Z,2.00
2023-04-01T19:27:30.174Z,2.08
2023-04-01T19:30:43.899Z,1.30
2023-04-01T19:33:33.674Z,2.65
2023-04-01T19:36:31.129Z,1.38
2023-04-01T19:39:37.050Z,2.42
2023-04-01T19:42:04.663Z,2.63
2023-04-01T19:44:38.309Z,1.65
2023-04-01T19:47:37.591Z,1.67
2023-04-01T19:50:12.243Z,1.95
2023-04-01T19:52:43.108Z,3.15
2023-04-01T19:55:32.728Z,2.08
2023-04-01T19:58:57.192Z,1.40
2023-04-01T20:01:44.180Z,1.25
2023-04-01T20:04:22.685Z,2.92
2023-04-01T20:07:33.303Z,1.85
2023-04-01T20:10:08.377Z,1.33
2023-04-01T20:12:47.871Z,1.67
2023-04-01T20:15:29.128Z,1.33
2023-04-01T20:18:00.528Z,2.10
2023-04-01T20:20:29.254Z,1.40
2023-04-01T20:23:00.987Z,1.27
2023-04-01T20:25:40.793Z,2.00
2023-04-01T20:28:19.911Z,1.67
2023-04-01T20:30:59.630Z,2.80
2023-04-01T20:33:45.501Z,1.92
2023-04-01T20:36:50.619Z,1.13
2023-04-01T20:39:42.164Z,1.90
2023-04-01T20:42:34.915Z,1.58
2023-04-01T20:45:26.600Z,2.10
2023-04-01T20:48:15.676Z,0.85
2023-04-01T20:50:50.043Z,1.20
2023-04-01T20:53:36.479Z,1.35
2023-04-01T20:56:25.100Z,2.05
2023-04-01T20:59:32.218Z,1.67
2023-04-01T21:02:34.197Z,0.90
2023-04-01T21:05:48.255Z,0.73
2023-04-01T21:08:24.179Z,1.25
2023-04-01T21:11:42.471Z,1.00
2023-04-01T21:14:19.122Z,2.17
2023-04-01T21:17:03.992Z,2.10
2023-04-01T21:20:01.900Z,0.68
2023-04-01T21:22:34.947Z,0.57
2023-04-01T21:25:30.555Z,0.70
2023-04-01T21:28:14.571Z,0.63
2023-04-01T21:30:48.377Z,1.55
2023-04-01T21:33:55.146Z,1.35
2023-04-01T21:36:49.162Z,0.93
2023-04-01T21:39:55.334Z,1.35
2023-04-01T21:42:22.871Z,1.52
2023-04-01T21:44:53.452Z,0.68
2023-04-01T21:47:57.499Z,1.50
2023-04-01T21:50:41.268Z,0.70
2023-04-01T21:53:11.925Z,1.52
2023-04-01T21:55:46.110Z,0.68
2023-04-01T21:59:02.737Z,1.30
2023-04-01T22:02:02.401Z,1.13
2023-04-01T22:05:05.040Z,0.57
2023-04-01T22:07:48.536Z,1.50
2023-04-01T22:10:47.156Z,1.83
2023-04-01T22:13:21.765Z,0.98
2023-04-01T22:16:12.743Z,0.85
2023-04-01T22:18:50.713Z,1.10
2023-04-01T22:21:31.141Z,1.00
2023-04-01T22:24:23.319Z,1.35
2023-04-01T22:26:53.106Z,1.60
2023-04-01T22:29:42.788Z,0.77
2023-04-01T22:32:34.353Z,1.20
2023-04-01T22:35:09.657Z,1.52
2023-04-01T22:37:37.225Z,1.20
2023-04-01T22:40:22.547Z,1.13
2023-04-01T22:42:59.187Z,1.77
2023-04-01T22:45:29.888Z,1.40
2023-04-01T22:48:10.052Z,1.02
2023-04-01T22:50:42.007Z,1.55
2023-04-01T22:53:34.258Z,1.83
2023-04-01T22:56:08.219Z,0.93
2023-04-01T22:58:42.177Z,1.55
2023-04-01T23:01:17.445Z,0.60
2023-04-01T23:03:46.895Z,0.88
2023-04-01T23:06:39.094Z,0.88
2023-04-01T23:09:12.174Z,1.52
2023-04-01T23:12:06.355Z,1.65
2023-04-01T23:14:39.292Z,1.50
2023-04-01T23:17:33.067Z,0.80
2023-04-01T23:21:04.732Z,1.30
2023-04-01T23:23:36.147Z,1.30
2023-04-01T23:26:46.561Z,1.20
2023-04-01T23:29:17.340Z,1.80
2023-04-01T23:31:48.439Z,1.60
2023-04-01T23:34:18.838Z,1.58
2023-04-01T23:36:49.889Z,0.90
2023-04-01T23:39:37.590Z,1.25
2023-04-01T23:42:25.563Z,0.82
2023-04-01T23:44:56.947Z,1.52
2023-04-01T23:47:35.649Z,1.20
2023-04-01T23:50:13.680Z,1.08
2023-04-01T23:52:49.523Z,2.67
2023-04-01T23:55:25.487Z,1.33
2023-04-01T23:58:16.381Z,1.10
